Sulphur Springs, Ohio
Current Conditions -  °F | °C
As of 10:07 PM on Wednesday 26 Nov 2014 (Local Time) from KMFD Reporting Station
Broken Clouds Broken Clouds  
Wind Chill: 24°   Ceiling: 900
Heat Index: 29°   Visibility: 7mi
Dew Point: 27°   Wind: 5mph
Humidity: 92%   Direction: 340°NNW
Pressure: 30.03"   Gusts: NA
Location:  40.87°N, 82.88°W
Report Text: KMFD 270307Z 34004KT 7SM BKN009 BKN030 M02/M03 A3003 RMK AO2 T10171028
Loading
Personal Weather Stations






























Interactive Weather Map New forecast layout! Learn more

10-Day Weather Forecast

Advertisements
Track Severe Weather on mobile